Observations

86.5 °F / 30.3 °C
ENE at 8 MPH
69%
75.2°F / 24.0 °C
29.7" (1005 mb)
10 mile(s)
partly cloudy

Observations

Surface


Raw METARs

2017/11/23 03:20
PKWA 230320Z AUTO 06007KT 10SM SCT023 30/24 A2970 RMK AO2 T03030240

Translated METAR

Kwajalein, Bucholz AAF, Kwajalein KMR ATOL Airport, Marshall Islands (PKWA) 08-43N 167-44E 2M
Nov 22, 2017 - 10:20 PM EST / 2017.11.23 0320 UTC
Wind: from the ENE (060 degrees) at 8 MPH (7 KT):0
Visibility: 10 mile(s):0
Sky conditions: partly cloudy
Temperature: 86.5 F (30.3 C)
Heat index: 95.9 F (35.5 C):1
Dew Point: 75.2 F (24.0 C)
Relative Humidity: 69%
Pressure (altimeter): 29.7 in. Hg (1005 hPa)
ob: PKWA 230320Z AUTO 06007KT 10SM SCT023 30/24 A2970 RMK AO2 T03030240
cycle: 3



Upper Air


Latest Skew-T

Skew T Diagram

Latest Data File